Burney, CA (96013)

8:28 AM PDT on October 21, 2014 (GMT -0700)
Black Ranch at Vedder | Change Station
CLOSE
Current Station
Personal Weather Station
Location: Burney, CA
Elevation: 3137 ft
Nearby Weather Stations

Elev 3137 ft 40.93 °N, 121.66 °W | Updated 6 seconds ago

Mostly Cloudy
Mostly Cloudy
36.8 °F
Feels Like 37 °F
N
0.0
Wind Variable Wind from SSE
Gusts 1.0 mph

Today
High -- | Low -- °F
--% Chance of Precip.
Yesterday
High -- | Low -- °F
Precip. -- in
7:24 AM 6:17 PM
Waning Crescent, 5% visible
Pressure 30.18 in
Visibility 10.0 miles
Clouds Overcast 300 ft
Windchill 37 °F
Dew Point 36 °F
Humidity 96%
Rainfall 0.00 in
Snow Depth Not available.
UV 0.0 out of 12
Pollen 1.50 out of 12
Air Quality Not available.
Flu Activity Sporadic
METAR KMHS 211456Z AUTO 00000KT 10SM OVC003 03/03 A3011 RMK AO2 SLP220 T00330028 51010

More Conditions Fewer Conditions

Pressure 30.18 in
Visibility 10.0 miles
Clouds Overcast 300 ft
Windchill 37 °F
Dew Point 36 °F
Humidity 96%
Rainfall 0.00 in
Snow Depth Not available.
UV 0.0 out of 12
Pollen 1.50 out of 12
Air Quality Not available.
Flu Activity Sporadic
METAR KMHS 211456Z AUTO 00000KT 10SM OVC003 03/03 A3011 RMK AO2 SLP220 T00330028 51010

More Conditions Fewer Conditions

10-Day Weather Forecast

Almanac

Astronomy

Oct. 21, 2014 Rise Set
Actual Time 7:24 AM PDT 6:17 PM PDT
Civil Twilight 6:56 AM PDT 6:44 PM PDT
Nautical Twilight 6:24 AM PDT 7:16 PM PDT
Astronomical Twilight 5:53 AM PDT 7:48 PM PDT
Moon 5:13 AM PDT 5:14 PM PDT
Length of Visible Light 11h 48m
Length of Day
10h 52m
Tomorrow will be 2m 33s shorter.
Waning Crescent, 5% of the Moon is Illuminated
Today
Waning Crescent
Oct 23
New
Oct 30
First Quarter
Nov 6
Full
Nov 14
Last Quarter

Today's Extremes

State Highs State Lows

Community

WunderPhotos

Upload Photos

1,763,684 photos uploaded!

WunderBlogs® & News

By Dr. Jeff Masters
Director of Meteorology, Weather Underground
By Kari Strenfel
Meteorologist, Weather Underground
By Christopher C. Burt
Weather Historian, Weather Underground
October 21, 2014
October 21, 2014
October 21, 2014

Nearby

Snow Depth

Station Depth Elevation
Adin Mountain 0 in 6200 ft
Independence Creek 0 in 6500 ft
Independence Camp 0 in 7000 ft
Independence Lake 1 in 8450 ft
CSS Lab 1 in 6900 ft

Earthquake Activity

City Distance Mag. Time & Date
No recent earthquake activity has been reported nearby.
Minimum magnitude displayed is 2.5.

Coastal Water Temperatures

Place Temperature
No Stations Reporting

Nearby Weather Stations